Time,TemperatureF,DewpointF,PressureIn,WindDirection,WindDirectionDegrees,WindSpeedMPH,WindSpeedGustMPH,Humidity,HourlyPrecipIn,Conditions,Clouds,dailyrainin,SoftwareType,DateUTC
2013-01-18 00:11:00,39.9,39.0,30.20,North,10,2.0,6.0,95,0.00,,,0.00,weatherlink.com 1.10,2013-01-18 08:11:00,
2013-01-18 00:26:00,39.9,39.0,30.20,NNE,23,4.0,6.0,95,0.00,,,0.00,weatherlink.com 1.10,2013-01-18 08:26:00,
2013-01-18 00:41:00,39.7,38.0,30.20,NNE,21,6.0,6.0,95,0.00,,,0.00,weatherlink.com 1.10,2013-01-18 08:41:00,
2013-01-18 00:56:00,39.3,38.0,30.20,NNE,24,1.0,5.0,95,0.00,,,0.00,weatherlink.com 1.10,2013-01-18 08:56:00,
2013-01-18 01:11:00,39.6,38.0,30.20,NNE,24,3.0,6.0,95,0.00,,,0.00,weatherlink.com 1.10,2013-01-18 09:11:00,
2013-01-18 01:26:00,38.8,38.0,30.21,NNE,22,3.0,6.0,95,0.00,,,0.00,weatherlink.com 1.10,2013-01-18 09:26:00,
2013-01-18 01:42:00,39.0,38.0,30.21,NNE,14,2.0,4.0,95,0.00,,,0.00,weatherlink.com 1.10,2013-01-18 09:42:00,
2013-01-18 01:57:00,38.4,37.0,30.21,NNE,21,3.0,5.0,95,0.00,,,0.00,weatherlink.com 1.10,2013-01-18 09:57:00,
2013-01-18 02:13:00,37.9,37.0,30.21,NNE,30,5.0,5.0,95,0.00,,,0.00,weatherlink.com 1.10,2013-01-18 10:13:00,
2013-01-18 02:27:00,37.8,37.0,30.21,NNE,27,2.0,7.0,95,0.00,,,0.00,weatherlink.com 1.10,2013-01-18 10:27:00,
2013-01-18 02:42:00,37.7,36.0,30.21,NNE,12,3.0,10.0,95,0.00,,,0.00,weatherlink.com 1.10,2013-01-18 10:42:00,
2013-01-18 02:57:00,37.2,36.0,30.21,NNE,17,3.0,5.0,95,0.00,,,0.00,weatherlink.com 1.10,2013-01-18 10:57:00,
2013-01-18 03:12:00,37.2,36.0,30.20,NNE,22,4.0,5.0,95,0.00,,,0.00,weatherlink.com 1.10,2013-01-18 11:12:00,
2013-01-18 03:27:00,36.8,36.0,30.20,NNE,24,0.0,6.0,95,0.00,,,0.00,weatherlink.com 1.10,2013-01-18 11:27:00,
2013-01-18 03:42:00,37.0,36.0,30.20,NNE,27,2.0,8.0,95,0.00,,,0.00,weatherlink.com 1.10,2013-01-18 11:42:00,
2013-01-18 03:57:00,36.8,36.0,30.20,NNE,22,5.0,8.0,95,0.00,,,0.00,weatherlink.com 1.10,2013-01-18 11:57:00,
2013-01-18 04:12:00,36.2,35.0,30.20,NNE,15,5.0,5.0,95,0.00,,,0.00,weatherlink.com 1.10,2013-01-18 12:12:00,
2013-01-18 04:27:00,36.0,35.0,30.19,NNE,24,5.0,8.0,95,0.00,,,0.00,weatherlink.com 1.10,2013-01-18 12:27:00,
2013-01-18 04:42:00,35.7,34.0,30.19,NNE,13,6.0,7.0,95,0.00,,,0.00,weatherlink.com 1.10,2013-01-18 12:42:00,
2013-01-18 04:57:00,35.4,34.0,30.18,NNE,23,6.0,8.0,95,0.00,,,0.00,weatherlink.com 1.10,2013-01-18 12:57:00,
2013-01-18 05:12:00,35.4,34.0,30.18,NNE,24,4.0,10.0,95,0.00,,,0.00,weatherlink.com 1.10,2013-01-18 13:12:00,
2013-01-18 05:27:00,35.0,34.0,30.18,NNE,17,7.0,10.0,94,0.00,,,0.00,weatherlink.com 1.10,2013-01-18 13:27:00,
2013-01-18 05:42:00,34.7,34.0,30.18,NNE,19,6.0,9.0,95,0.00,,,0.00,weatherlink.com 1.10,2013-01-18 13:42:00,
2013-01-18 05:57:00,34.7,34.0,30.18,NNE,27,6.0,8.0,95,0.00,,,0.00,weatherlink.com 1.10,2013-01-18 13:57:00,
2013-01-18 06:12:00,34.8,34.0,30.18,North,11,5.0,8.0,95,0.00,,,0.00,weatherlink.com 1.10,2013-01-18 14:12:00,
2013-01-18 06:27:00,35.1,34.0,30.19,NNE,19,4.0,7.0,94,0.00,,,0.00,weatherlink.com 1.10,2013-01-18 14:27:00,
2013-01-18 06:42:00,34.7,34.0,30.18,NNE,25,4.0,9.0,95,0.00,,,0.00,weatherlink.com 1.10,2013-01-18 14:42:00,
2013-01-18 06:57:00,34.6,33.0,30.19,NNE,23,5.0,8.0,94,0.00,,,0.00,weatherlink.com 1.10,2013-01-18 14:57:00,
2013-01-18 07:12:00,34.4,33.0,30.19,NNE,24,5.0,8.0,94,0.00,,,0.00,weatherlink.com 1.10,2013-01-18 15:12:00,
2013-01-18 07:27:00,34.5,33.0,30.20,NNE,28,2.0,9.0,94,0.00,,,0.00,weatherlink.com 1.10,2013-01-18 15:27:00,
2013-01-18 07:42:00,34.1,33.0,30.20,NNE,20,4.0,10.0,94,0.00,,,0.00,weatherlink.com 1.10,2013-01-18 15:42:00,
2013-01-18 07:57:00,34.2,33.0,30.20,NNE,17,5.0,7.0,94,0.00,,,0.00,weatherlink.com 1.10,2013-01-18 15:57:00,
2013-01-18 08:12:00,34.2,33.0,30.20,NNE,17,5.0,6.0,94,0.00,,,0.00,weatherlink.com 1.10,2013-01-18 16:12:00,
2013-01-18 08:27:00,34.5,33.0,30.20,NNE,23,4.0,7.0,94,0.00,,,0.00,weatherlink.com 1.10,2013-01-18 16:27:00,
2013-01-18 08:42:00,34.7,33.0,30.21,NNE,15,9.0,9.0,94,0.00,,,0.00,weatherlink.com 1.10,2013-01-18 16:42:00,
2013-01-18 08:58:00,35.5,34.0,30.21,NNE,23,3.0,11.0,94,0.00,,,0.00,weatherlink.com 1.10,2013-01-18 16:58:00,
2013-01-18 09:13:00,37.1,35.0,30.22,NNE,19,3.0,6.0,92,0.00,,,0.00,weatherlink.com 1.10,2013-01-18 17:13:00,
2013-01-18 09:28:00,38.4,36.0,30.23,NNE,26,3.0,5.0,91,0.00,,,0.00,weatherlink.com 1.10,2013-01-18 17:28:00,
2013-01-18 09:43:00,38.8,37.0,30.23,NNE,22,1.0,4.0,92,0.00,,,0.00,weatherlink.com 1.10,2013-01-18 17:43:00,
2013-01-18 09:58:00,40.9,39.0,30.23,NNE,18,2.0,2.0,91,0.00,,,0.00,weatherlink.com 1.10,2013-01-18 17:58:00,
2013-01-18 10:13:00,42.1,39.0,30.22,NE,34,0.0,6.0,88,0.00,,,0.00,weatherlink.com 1.10,2013-01-18 18:13:00,
2013-01-18 10:28:00,44.2,40.0,30.23,NNE,26,0.0,3.0,86,0.00,,,0.00,weatherlink.com 1.10,2013-01-18 18:28:00,
2013-01-18 10:43:00,48.1,44.0,30.23,NNE,23,0.0,1.0,86,0.00,,,0.00,weatherlink.com 1.10,2013-01-18 18:43:00,
2013-01-18 10:58:00,49.3,45.0,30.22,South,181,0.0,1.0,84,0.00,,,0.00,weatherlink.com 1.10,2013-01-18 18:58:00,
2013-01-18 11:13:00,50.4,46.0,30.22,SSW,201,2.0,2.0,84,0.00,,,0.00,weatherlink.com 1.10,2013-01-18 19:13:00,
2013-01-18 11:28:00,51.1,46.0,30.22,SW,219,2.0,4.0,82,0.00,,,0.00,weatherlink.com 1.10,2013-01-18 19:28:00,
2013-01-18 11:43:00,52.4,47.0,30.21,SW,230,0.0,4.0,83,0.00,,,0.00,weatherlink.com 1.10,2013-01-18 19:43:00,
2013-01-18 11:58:00,53.5,48.0,30.20,SW,216,4.0,4.0,82,0.00,,,0.00,weatherlink.com 1.10,2013-01-18 19:58:00,
2013-01-18 12:13:00,53.6,47.0,30.19,SSW,199,3.0,5.0,78,0.00,,,0.00,weatherlink.com 1.10,2013-01-18 20:13:00,
2013-01-18 12:28:00,53.2,46.0,30.18,SW,228,4.0,5.0,77,0.00,,,0.00,weatherlink.com 1.10,2013-01-18 20:28:00,
2013-01-18 12:43:00,52.5,46.0,30.18,SSW,200,2.0,5.0,78,0.00,,,0.00,weatherlink.com 1.10,2013-01-18 20:43:00,
2013-01-18 12:58:00,52.8,44.0,30.17,South,175,2.0,5.0,73,0.00,,,0.00,weatherlink.com 1.10,2013-01-18 20:58:00,
2013-01-18 13:13:00,52.9,46.0,30.17,SSW,210,2.0,5.0,76,0.00,,,0.00,weatherlink.com 1.10,2013-01-18 21:13:00,
2013-01-18 13:28:00,52.8,45.0,30.17,SSW,205,1.0,5.0,74,0.00,,,0.00,weatherlink.com 1.10,2013-01-18 21:28:00,
2013-01-18 13:43:00,54.2,46.0,30.17,SW,227,4.0,5.0,73,0.00,,,0.00,weatherlink.com 1.10,2013-01-18 21:43:00,
2013-01-18 13:58:00,54.4,46.0,30.17,SSW,202,3.0,5.0,73,0.00,,,0.00,weatherlink.com 1.10,2013-01-18 21:58:00,
2013-01-18 14:13:00,55.4,47.0,30.16,SSW,201,2.0,5.0,73,0.00,,,0.00,weatherlink.com 1.10,2013-01-18 22:13:00,
2013-01-18 14:28:00,56.2,47.0,30.16,South,180,1.0,4.0,70,0.00,,,0.00,weatherlink.com 1.10,2013-01-18 22:28:00,
2013-01-18 14:43:00,55.8,48.0,30.16,SSW,202,2.0,4.0,76,0.00,,,0.00,weatherlink.com 1.10,2013-01-18 22:43:00,
2013-01-18 14:58:00,54.9,47.0,30.16,SW,220,3.0,5.0,76,0.00,,,0.00,weatherlink.com 1.10,2013-01-18 22:58:00,
2013-01-18 15:13:00,56.3,47.0,30.16,SSW,202,0.0,3.0,72,0.00,,,0.00,weatherlink.com 1.10,2013-01-18 23:13:00,
2013-01-18 15:28:00,55.2,48.0,30.16,SW,215,2.0,4.0,77,0.00,,,0.00,weatherlink.com 1.10,2013-01-18 23:28:00,
2013-01-18 15:43:00,55.0,48.0,30.16,SSW,207,2.0,4.0,78,0.00,,,0.00,weatherlink.com 1.10,2013-01-18 23:43:00,
2013-01-18 15:58:00,55.7,49.0,30.16,South,178,0.0,3.0,78,0.00,,,0.00,weatherlink.com 1.10,2013-01-18 23:58:00,
2013-01-18 16:13:00,56.2,50.0,30.16,SSW,202,0.0,3.0,79,0.00,,,0.00,weatherlink.com 1.10,2013-01-19 00:13:00,
2013-01-18 16:28:00,57.0,50.0,30.16,SSW,202,0.0,1.0,78,0.00,,,0.00,weatherlink.com 1.10,2013-01-19 00:28:00,
2013-01-18 16:43:00,56.5,47.0,30.16,SSW,202,0.0,0.0,71,0.00,,,0.00,weatherlink.com 1.10,2013-01-19 00:43:00,
2013-01-18 16:58:00,54.2,45.0,30.16,SSW,202,0.0,0.0,71,0.00,,,0.00,weatherlink.com 1.10,2013-01-19 00:58:00,
2013-01-18 17:13:00,53.3,43.0,30.16,NNE,21,0.0,2.0,68,0.00,,,0.00,weatherlink.com 1.10,2013-01-19 01:13:00,
2013-01-18 17:28:00,52.6,41.0,30.16,NNE,16,0.0,1.0,66,0.00,,,0.00,weatherlink.com 1.10,2013-01-19 01:28:00,
2013-01-18 17:43:00,52.0,43.0,30.16,NNE,22,0.0,1.0,72,0.00,,,0.00,weatherlink.com 1.10,2013-01-19 01:43:00,
2013-01-18 17:58:00,50.7,44.0,30.16,North,9,0.0,1.0,78,0.00,,,0.00,weatherlink.com 1.10,2013-01-19 01:58:00,
2013-01-18 18:13:00,49.0,43.0,30.17,NNE,30,0.0,0.0,81,0.00,,,0.00,weatherlink.com 1.10,2013-01-19 02:13:00,
2013-01-18 18:28:00,48.3,43.0,30.16,NNE,21,1.0,8.0,81,0.00,,,0.00,weatherlink.com 1.10,2013-01-19 02:28:00,
2013-01-18 18:43:00,47.4,43.0,30.17,NE,41,0.0,6.0,83,0.00,,,0.00,weatherlink.com 1.10,2013-01-19 02:43:00,
2013-01-18 18:58:00,46.8,42.0,30.16,NNE,26,2.0,6.0,83,0.00,,,0.00,weatherlink.com 1.10,2013-01-19 02:58:00,
2013-01-18 19:13:00,46.6,42.0,30.17,NNE,26,0.0,7.0,83,0.00,,,0.00,weatherlink.com 1.10,2013-01-19 03:13:00,
2013-01-18 19:28:00,45.2,41.0,30.17,NNE,25,4.0,6.0,86,0.00,,,0.00,weatherlink.com 1.10,2013-01-19 03:28:00,
2013-01-18 19:44:00,45.0,41.0,30.17,NNE,20,4.0,9.0,86,0.00,,,0.00,weatherlink.com 1.10,2013-01-19 03:44:00,
2013-01-18 19:59:00,44.7,41.0,30.17,NNE,27,2.0,6.0,87,0.00,,,0.00,weatherlink.com 1.10,2013-01-19 03:59:00,
2013-01-18 20:14:00,43.8,41.0,30.17,NNE,26,4.0,8.0,88,0.00,,,0.00,weatherlink.com 1.10,2013-01-19 04:14:00,
2013-01-18 20:29:00,43.8,41.0,30.17,NNE,23,7.0,8.0,88,0.00,,,0.00,weatherlink.com 1.10,2013-01-19 04:29:00,
2013-01-18 20:44:00,43.4,40.0,30.17,NNE,24,4.0,8.0,89,0.00,,,0.00,weatherlink.com 1.10,2013-01-19 04:44:00,
2013-01-18 20:59:00,43.2,41.0,30.17,NNE,26,6.0,8.0,90,0.00,,,0.00,weatherlink.com 1.10,2013-01-19 04:59:00,
2013-01-18 21:14:00,43.0,40.0,30.17,NNE,28,2.0,9.0,90,0.00,,,0.00,weatherlink.com 1.10,2013-01-19 05:14:00,
2013-01-18 21:29:00,42.6,40.0,30.17,NNE,27,6.0,10.0,90,0.00,,,0.00,weatherlink.com 1.10,2013-01-19 05:29:00,
2013-01-18 21:44:00,41.7,39.0,30.17,NNE,17,7.0,8.0,91,0.00,,,0.00,weatherlink.com 1.10,2013-01-19 05:44:00,
2013-01-18 21:59:00,41.7,40.0,30.18,NNE,26,3.0,8.0,92,0.00,,,0.00,weatherlink.com 1.10,2013-01-19 05:59:00,
2013-01-18 22:14:00,41.6,40.0,30.18,NNE,21,5.0,6.0,92,0.00,,,0.00,weatherlink.com 1.10,2013-01-19 06:14:00,
2013-01-18 22:29:00,41.5,39.0,30.18,NNE,19,5.0,8.0,91,0.00,,,0.00,weatherlink.com 1.10,2013-01-19 06:29:00,
2013-01-18 22:44:00,40.9,39.0,30.18,NNE,23,5.0,8.0,92,0.00,,,0.00,weatherlink.com 1.10,2013-01-19 06:44:00,
2013-01-18 22:59:00,41.0,39.0,30.18,NNE,17,6.0,8.0,92,0.00,,,0.00,weatherlink.com 1.10,2013-01-19 06:59:00,
2013-01-18 23:14:00,40.7,38.0,30.18,NNE,16,6.0,8.0,91,0.00,,,0.00,weatherlink.com 1.10,2013-01-19 07:14:00,
2013-01-18 23:29:00,40.2,38.0,30.18,North,11,6.0,8.0,92,0.00,,,0.00,weatherlink.com 1.10,2013-01-19 07:29:00,
2013-01-18 23:44:00,40.2,38.0,30.18,North,9,6.0,9.0,92,0.00,,,0.00,weatherlink.com 1.10,2013-01-19 07:44:00,
2013-01-18 23:59:00,40.0,38.0,30.18,NNE,17,8.0,10.0,92,0.00,,,0.00,weatherlink.com 1.10,2013-01-19 07:59:00,